createdAt,value
2019-03-01T00:00:45.073Z,17.93
2019-03-01T00:03:14.554Z,17.90
2019-03-01T00:06:13.373Z,18.93
2019-03-01T00:09:26.030Z,17.87
2019-03-01T00:12:10.697Z,15.47
2019-03-01T00:15:16.922Z,15.63
2019-03-01T00:18:13.338Z,14.83
2019-03-01T00:21:07.372Z,13.73
2019-03-01T00:24:15.019Z,14.53
2019-03-01T00:26:56.663Z,15.47
2019-03-01T00:30:07.444Z,15.33
2019-03-01T00:33:07.149Z,19.33
2019-03-01T00:36:09.618Z,16.30
2019-03-01T00:38:59.077Z,14.43
2019-03-01T00:41:46.146Z,13.27
2019-03-01T00:44:31.008Z,13.40
2019-03-01T00:47:00.480Z,12.57
2019-03-01T00:49:32.923Z,11.63
2019-03-01T00:52:02.614Z,11.30
2019-03-01T00:54:32.114Z,11.77
2019-03-01T00:57:01.607Z,11.33
2019-03-01T00:59:31.072Z,10.63
2019-03-01T01:02:00.695Z,10.40
2019-03-01T01:04:30.246Z,11.50
2019-03-01T01:06:59.719Z,11.20
2019-03-01T01:09:29.119Z,12.33
2019-03-01T01:11:58.613Z,12.20
2019-03-01T01:14:27.992Z,11.57
2019-03-01T01:16:57.453Z,11.03
2019-03-01T01:19:26.931Z,11.70
2019-03-01T01:21:56.432Z,11.80
2019-03-01T01:24:25.851Z,11.50
2019-03-01T01:26:55.456Z,11.03
2019-03-01T01:29:24.869Z,12.73
2019-03-01T01:31:54.356Z,12.00
2019-03-01T01:34:23.789Z,14.30
2019-03-01T01:36:53.202Z,13.33
2019-03-01T01:39:23.224Z,13.10
2019-03-01T01:41:52.729Z,14.90
2019-03-01T01:44:22.157Z,12.87
2019-03-01T01:46:51.685Z,12.67
2019-03-01T01:49:21.160Z,11.40
2019-03-01T01:51:50.539Z,10.97
2019-03-01T01:54:20.075Z,11.97
2019-03-01T01:56:49.420Z,12.23
2019-03-01T01:59:18.791Z,11.03
2019-03-01T02:01:48.163Z,10.37
2019-03-01T02:04:17.669Z,9.23
2019-03-01T02:06:47.103Z,10.80
2019-03-01T02:09:21.852Z,9.80
2019-03-01T02:11:51.390Z,10.13
2019-03-01T02:14:20.779Z,9.70
2019-03-01T02:16:50.373Z,8.53
2019-03-01T02:19:19.744Z,8.60
2019-03-01T02:21:49.181Z,7.97
2019-03-01T02:24:18.580Z,8.13
2019-03-01T02:26:47.977Z,8.37
2019-03-01T02:29:17.470Z,8.60
2019-03-01T02:31:52.389Z,7.80
2019-03-01T02:34:21.811Z,7.87
2019-03-01T02:36:51.266Z,8.17
2019-03-01T02:39:20.663Z,7.47
2019-03-01T02:41:50.136Z,7.17
2019-03-01T02:44:19.541Z,6.97
2019-03-01T02:46:48.952Z,7.20
2019-03-01T02:49:18.359Z,6.90
2019-03-01T02:51:47.728Z,7.13
2019-03-01T02:54:17.271Z,6.97
2019-03-01T02:56:46.621Z,7.67
2019-03-01T02:59:16.074Z,7.07
2019-03-01T03:01:45.490Z,8.03
2019-03-01T03:04:14.851Z,6.93
2019-03-01T03:06:59.112Z,7.80
2019-03-01T03:09:28.515Z,7.13
2019-03-01T03:11:57.849Z,6.33
2019-03-01T03:14:27.295Z,7.50
2019-03-01T03:16:56.742Z,7.50
2019-03-01T03:19:26.528Z,6.53
2019-03-01T03:21:55.965Z,6.83
2019-03-01T03:24:25.343Z,7.27
2019-03-01T03:26:54.707Z,7.10
2019-03-01T03:29:24.174Z,7.97
2019-03-01T03:31:53.569Z,8.83
2019-03-01T03:34:22.981Z,10.90
2019-03-01T03:36:52.438Z,10.10
2019-03-01T03:39:21.890Z,12.67
2019-03-01T03:41:51.362Z,12.77
2019-03-01T03:44:21.025Z,13.77
2019-03-01T03:46:50.414Z,14.03
2019-03-01T03:49:19.769Z,13.23
2019-03-01T03:51:49.226Z,12.90
2019-03-01T03:54:18.668Z,14.20
2019-03-01T03:56:48.184Z,11.37
2019-03-01T03:59:17.707Z,11.93
2019-03-01T04:01:47.096Z,11.80
2019-03-01T04:04:16.660Z,11.20
2019-03-01T04:06:46.256Z,11.20
2019-03-01T04:09:15.615Z,10.30
2019-03-01T04:11:45.107Z,10.47
2019-03-01T04:14:14.461Z,8.53
2019-03-01T04:16:43.910Z,8.63
2019-03-01T04:19:13.324Z,8.30
2019-03-01T04:21:42.714Z,8.40
2019-03-01T04:24:12.131Z,7.90
2019-03-01T04:26:41.578Z,7.70
2019-03-01T04:29:10.998Z,7.90
2019-03-01T04:31:40.379Z,8.00
2019-03-01T04:34:09.906Z,7.03
2019-03-01T04:36:39.278Z,7.17
2019-03-01T04:39:09.212Z,7.73
2019-03-01T04:41:38.688Z,7.73
2019-03-01T04:44:08.078Z,8.00
2019-03-01T04:46:37.571Z,8.87
2019-03-01T04:49:07.035Z,7.83
2019-03-01T04:51:40.037Z,7.47
2019-03-01T04:54:07.549Z,7.77
2019-03-01T04:56:37.041Z,7.80
2019-03-01T04:59:06.497Z,7.43
2019-03-01T05:01:35.885Z,7.63
2019-03-01T05:04:05.466Z,7.40
2019-03-01T05:06:34.815Z,7.37
2019-03-01T05:09:05.640Z,8.57
2019-03-01T05:11:35.056Z,7.93
2019-03-01T05:14:04.583Z,7.67
2019-03-01T05:16:34.088Z,8.37
2019-03-01T05:19:03.453Z,8.93
2019-03-01T05:21:32.837Z,9.03
2019-03-01T05:24:02.207Z,9.33
2019-03-01T05:26:31.541Z,9.70
2019-03-01T05:29:00.937Z,8.30
2019-03-01T05:31:30.447Z,9.30
2019-03-01T05:33:59.934Z,9.27
2019-03-01T05:36:29.373Z,10.70
2019-03-01T05:38:58.776Z,9.93
2019-03-01T05:41:28.186Z,9.87
2019-03-01T05:43:57.559Z,9.17
2019-03-01T05:46:27.015Z,10.27
2019-03-01T05:48:56.432Z,10.10
2019-03-01T05:51:25.849Z,9.90
2019-03-01T05:53:55.264Z,9.87
2019-03-01T05:56:24.682Z,9.93
2019-03-01T05:59:12.117Z,9.80
2019-03-01T06:02:03.229Z,9.40
2019-03-01T06:04:40.060Z,9.40
2019-03-01T06:07:46.398Z,9.93
2019-03-01T06:10:55.146Z,10.63
2019-03-01T06:14:00.262Z,9.83
2019-03-01T06:17:02.477Z,10.43
2019-03-01T06:19:56.531Z,10.17
2019-03-01T06:22:51.081Z,10.03
2019-03-01T06:25:45.710Z,10.20
2019-03-01T06:28:34.590Z,14.17
2019-03-01T06:31:29.870Z,11.37
2019-03-01T06:34:24.386Z,11.67
2019-03-01T06:37:22.016Z,12.60
2019-03-01T06:40:19.972Z,14.27
2019-03-01T06:43:26.385Z,12.47
2019-03-01T06:46:35.566Z,13.37
2019-03-01T06:49:13.872Z,13.83
2019-03-01T06:51:43.435Z,12.53
2019-03-01T06:54:12.784Z,13.20
2019-03-01T06:56:42.311Z,14.83
2019-03-01T06:59:11.753Z,13.63
2019-03-01T07:01:48.247Z,13.00
2019-03-01T07:04:18.508Z,12.00
2019-03-01T07:06:47.956Z,12.23
2019-03-01T07:09:17.356Z,12.70
2019-03-01T07:11:46.719Z,12.17
2019-03-01T07:14:16.176Z,12.23
2019-03-01T07:16:45.554Z,12.37
2019-03-01T07:19:15.004Z,12.50
2019-03-01T07:21:44.903Z,12.53
2019-03-01T07:24:14.577Z,12.70
2019-03-01T07:26:44.380Z,12.77
2019-03-01T07:29:13.781Z,12.77
2019-03-01T07:31:43.266Z,14.30
2019-03-01T07:34:12.769Z,13.00
2019-03-01T07:36:42.206Z,12.83
2019-03-01T07:39:11.633Z,13.57
2019-03-01T07:41:41.019Z,13.43
2019-03-01T07:44:10.485Z,13.53
2019-03-01T07:46:39.849Z,13.90
2019-03-01T07:49:09.271Z,13.97
2019-03-01T07:51:38.674Z,13.77
2019-03-01T07:54:08.124Z,13.13
2019-03-01T07:56:39.888Z,14.60
2019-03-01T07:59:08.864Z,13.27
2019-03-01T08:01:38.298Z,12.57
2019-03-01T08:04:07.722Z,14.03
2019-03-01T08:06:37.072Z,12.77
2019-03-01T08:09:12.431Z,14.93
2019-03-01T08:11:41.889Z,14.53
2019-03-01T08:14:11.293Z,13.30
2019-03-01T08:16:40.711Z,14.50
2019-03-01T08:19:10.145Z,13.93
2019-03-01T08:21:42.696Z,14.77
2019-03-01T08:24:11.949Z,13.67
2019-03-01T08:26:41.352Z,14.10
2019-03-01T08:29:10.737Z,13.77
2019-03-01T08:31:40.164Z,13.90
2019-03-01T08:34:09.565Z,13.70
2019-03-01T08:36:42.445Z,14.80
2019-03-01T08:39:10.156Z,14.63
2019-03-01T08:41:39.598Z,13.97
2019-03-01T08:44:08.978Z,14.33
2019-03-01T08:46:41.740Z,15.30
2019-03-01T08:49:10.422Z,15.37
2019-03-01T08:51:41.036Z,15.80
2019-03-01T08:54:10.439Z,15.73
2019-03-01T08:56:39.885Z,16.37
2019-03-01T08:59:09.359Z,14.47
2019-03-01T09:01:41.798Z,14.80
2019-03-01T09:04:14.241Z,15.67
2019-03-01T09:06:43.780Z,15.53
2019-03-01T09:09:13.263Z,17.53
2019-03-01T09:11:44.720Z,17.20
2019-03-01T09:14:14.534Z,16.80
2019-03-01T09:16:43.965Z,17.27
2019-03-01T09:19:13.424Z,17.77
2019-03-01T09:21:44.638Z,17.13
2019-03-01T09:24:14.040Z,16.57
2019-03-01T09:26:43.486Z,17.57
2019-03-01T09:29:18.279Z,17.37
2019-03-01T09:31:44.330Z,17.27
2019-03-01T09:34:13.823Z,16.90
2019-03-01T09:37:01.303Z,17.60
2019-03-01T09:39:32.710Z,16.43
2019-03-01T09:42:06.209Z,17.73
2019-03-01T09:44:38.021Z,18.43
2019-03-01T09:47:05.885Z,17.63
2019-03-01T09:49:35.313Z,18.10
2019-03-01T09:52:04.933Z,17.93
2019-03-01T09:54:34.411Z,20.73
2019-03-01T09:57:03.874Z,21.63
2019-03-01T09:59:33.614Z,19.57
2019-03-01T10:02:03.174Z,17.97
2019-03-01T10:04:32.678Z,17.70
2019-03-01T10:07:02.220Z,17.60
2019-03-01T10:09:31.744Z,17.50
2019-03-01T10:12:01.272Z,19.83
2019-03-01T10:14:30.806Z,17.97
2019-03-01T10:17:00.243Z,17.93
2019-03-01T10:19:29.628Z,17.57
2019-03-01T10:21:59.018Z,17.50
2019-03-01T10:24:28.373Z,19.03
2019-03-01T10:26:57.767Z,18.43
2019-03-01T10:29:27.199Z,18.30
2019-03-01T10:31:56.525Z,17.43
2019-03-01T10:34:25.887Z,18.83
2019-03-01T10:36:55.282Z,17.63
2019-03-01T10:39:24.682Z,18.13
2019-03-01T10:41:54.383Z,18.47
2019-03-01T10:44:23.907Z,18.23
2019-03-01T10:46:53.225Z,17.37
2019-03-01T10:49:22.631Z,17.50
2019-03-01T10:51:52.030Z,18.40
2019-03-01T10:54:21.445Z,17.77
2019-03-01T10:56:50.926Z,17.13
2019-03-01T10:59:20.348Z,18.00
2019-03-01T11:01:49.810Z,17.57
2019-03-01T11:04:19.177Z,18.13
2019-03-01T11:06:48.742Z,19.63
2019-03-01T11:09:18.145Z,18.77
2019-03-01T11:11:47.568Z,18.67
2019-03-01T11:14:16.903Z,19.87
2019-03-01T11:16:46.231Z,18.93
2019-03-01T11:19:15.570Z,18.60
2019-03-01T11:21:44.908Z,19.47
2019-03-01T11:24:14.315Z,18.77
2019-03-01T11:26:45.762Z,19.67
2019-03-01T11:29:15.158Z,19.17
2019-03-01T11:31:44.566Z,20.23
2019-03-01T11:34:13.945Z,18.77
2019-03-01T11:36:43.348Z,18.90
2019-03-01T11:39:14.001Z,18.10
2019-03-01T11:41:46.476Z,18.57
2019-03-01T11:44:15.885Z,18.77
2019-03-01T11:46:45.311Z,18.93
2019-03-01T11:49:14.695Z,19.47
2019-03-01T11:51:44.058Z,19.63
2019-03-01T11:54:13.502Z,19.53
2019-03-01T11:56:42.847Z,19.47
2019-03-01T11:59:12.207Z,18.23
2019-03-01T12:01:41.541Z,18.87
2019-03-01T12:04:11.035Z,18.97
2019-03-01T12:06:40.464Z,19.17
2019-03-01T12:09:09.962Z,19.60
2019-03-01T12:11:39.390Z,21.73
2019-03-01T12:14:08.769Z,20.43
2019-03-01T12:16:38.137Z,19.90
2019-03-01T12:19:07.476Z,19.37
2019-03-01T12:21:36.835Z,18.00
2019-03-01T12:24:06.225Z,18.17
2019-03-01T12:26:35.637Z,17.83
2019-03-01T12:29:05.170Z,17.23
2019-03-01T12:31:34.532Z,17.33
2019-03-01T12:34:03.969Z,18.47
2019-03-01T12:36:33.347Z,18.03
2019-03-01T12:39:03.156Z,16.83
2019-03-01T12:41:32.523Z,17.37
2019-03-01T12:44:01.871Z,18.67
2019-03-01T12:46:31.223Z,17.77
2019-03-01T12:49:00.607Z,17.43
2019-03-01T12:51:29.986Z,18.13
2019-03-01T12:53:59.305Z,17.80
2019-03-01T12:56:28.664Z,18.43
2019-03-01T12:58:58.002Z,17.23
2019-03-01T13:01:27.405Z,18.00
2019-03-01T13:03:56.762Z,18.13
2019-03-01T13:06:26.120Z,17.10
2019-03-01T13:08:55.462Z,16.17
2019-03-01T13:11:24.844Z,16.77
2019-03-01T13:13:54.514Z,16.73
2019-03-01T13:16:26.598Z,16.67
2019-03-01T13:18:55.004Z,16.57
2019-03-01T13:21:24.348Z,16.67
2019-03-01T13:23:53.930Z,15.93
2019-03-01T13:26:23.324Z,16.33
2019-03-01T13:28:52.660Z,15.30
2019-03-01T13:31:22.030Z,15.67
2019-03-01T13:33:51.478Z,14.87
2019-03-01T13:36:20.869Z,15.37
2019-03-01T13:38:50.223Z,15.43
2019-03-01T13:41:19.629Z,15.93
2019-03-01T13:43:48.992Z,15.77
2019-03-01T13:46:18.383Z,15.67
2019-03-01T13:48:50.963Z,16.13
2019-03-01T13:51:18.964Z,15.80
2019-03-01T13:53:49.159Z,14.73
2019-03-01T13:56:18.693Z,15.43
2019-03-01T13:58:48.040Z,16.13
2019-03-01T14:01:17.379Z,14.60
2019-03-01T14:03:46.821Z,14.00
2019-03-01T14:06:16.286Z,13.83
2019-03-01T14:08:45.665Z,14.03
2019-03-01T14:11:18.943Z,13.20
2019-03-01T14:13:47.830Z,13.83
2019-03-01T14:16:20.426Z,13.33
2019-03-01T14:18:49.786Z,12.77
2019-03-01T14:21:19.159Z,12.90
2019-03-01T14:23:48.530Z,13.00
2019-03-01T14:26:18.472Z,13.10
2019-03-01T14:28:48.797Z,13.77
2019-03-01T14:31:18.184Z,12.77
2019-03-01T14:33:47.659Z,12.03
2019-03-01T14:36:17.166Z,13.13
2019-03-01T14:38:46.667Z,12.33
2019-03-01T14:41:16.019Z,12.77
2019-03-01T14:43:45.416Z,12.20
2019-03-01T14:46:17.545Z,13.03
2019-03-01T14:48:46.915Z,13.10
2019-03-01T14:51:16.500Z,13.13
2019-03-01T14:53:45.867Z,13.23
2019-03-01T14:56:27.828Z,12.13
2019-03-01T14:59:13.384Z,13.37
2019-03-01T15:02:13.066Z,11.97
2019-03-01T15:04:42.414Z,12.43
2019-03-01T15:07:11.778Z,13.20
2019-03-01T15:09:41.176Z,13.97
2019-03-01T15:12:10.542Z,14.20
2019-03-01T15:14:39.986Z,14.57
2019-03-01T15:17:09.383Z,13.33
2019-03-01T15:19:41.283Z,13.87
2019-03-01T15:22:13.165Z,14.90
2019-03-01T15:24:40.970Z,14.47
2019-03-01T15:27:10.626Z,14.33
2019-03-01T15:29:40.016Z,14.50
2019-03-01T15:32:09.875Z,16.17
2019-03-01T15:34:39.238Z,15.30
2019-03-01T15:37:08.597Z,15.20
2019-03-01T15:39:38.387Z,14.47
2019-03-01T15:42:09.941Z,15.57
2019-03-01T15:44:38.955Z,14.83
2019-03-01T15:47:08.307Z,16.37
2019-03-01T15:49:37.670Z,17.40
2019-03-01T15:52:07.033Z,16.17
2019-03-01T15:54:36.780Z,17.17
2019-03-01T15:57:06.165Z,15.33
2019-03-01T15:59:35.573Z,16.30
2019-03-01T16:02:04.911Z,15.67
2019-03-01T16:04:34.517Z,16.73
2019-03-01T16:07:03.949Z,17.90
2019-03-01T16:09:33.349Z,16.53
2019-03-01T16:12:02.750Z,16.80
2019-03-01T16:14:32.493Z,15.80
2019-03-01T16:17:01.902Z,16.10
2019-03-01T16:19:31.287Z,16.17
2019-03-01T16:22:00.703Z,17.43
2019-03-01T16:24:30.133Z,17.63
2019-03-01T16:26:59.475Z,16.97
2019-03-01T16:29:28.865Z,17.63
2019-03-01T16:31:59.289Z,17.00
2019-03-01T16:34:28.640Z,17.23
2019-03-01T16:36:59.018Z,17.80
2019-03-01T16:39:28.411Z,17.67
2019-03-01T16:41:58.097Z,18.77
2019-03-01T16:44:27.438Z,18.50
2019-03-01T16:46:56.793Z,18.53
2019-03-01T16:49:27.203Z,19.07
2019-03-01T16:51:57.213Z,18.50
2019-03-01T16:54:26.598Z,21.00
2019-03-01T16:56:55.974Z,22.97
2019-03-01T16:59:25.410Z,21.37
2019-03-01T17:01:54.782Z,23.50
2019-03-01T17:04:27.128Z,23.87
2019-03-01T17:06:55.365Z,25.23
2019-03-01T17:09:24.728Z,24.93
2019-03-01T17:11:54.103Z,24.53
2019-03-01T17:14:27.511Z,23.57
2019-03-01T17:17:01.539Z,23.87
2019-03-01T17:19:31.110Z,24.10
2019-03-01T17:22:00.488Z,22.57
2019-03-01T17:24:29.854Z,22.63
2019-03-01T17:27:15.156Z,23.33
2019-03-01T17:29:50.592Z,23.20
2019-03-01T17:32:20.155Z,23.57
2019-03-01T17:34:49.816Z,24.93
2019-03-01T17:37:46.058Z,23.27
2019-03-01T17:40:19.575Z,23.93
2019-03-01T17:42:49.911Z,24.33
2019-03-01T17:45:21.198Z,24.37
2019-03-01T17:47:50.543Z,24.83
2019-03-01T17:50:20.039Z,24.97
2019-03-01T17:52:49.379Z,25.23
2019-03-01T17:55:18.860Z,25.43
2019-03-01T17:57:50.208Z,24.70
2019-03-01T18:00:25.326Z,24.97
2019-03-01T18:02:55.239Z,23.97
2019-03-01T18:05:24.639Z,23.87
2019-03-01T18:07:54.038Z,24.37
2019-03-01T18:10:28.722Z,24.30
2019-03-01T18:12:57.660Z,22.37
2019-03-01T18:15:27.112Z,23.80
2019-03-01T18:17:56.858Z,21.40
2019-03-01T18:20:26.162Z,22.80
2019-03-01T18:22:55.566Z,22.30
2019-03-01T18:25:26.400Z,21.73
2019-03-01T18:27:56.284Z,21.50
2019-03-01T18:30:25.837Z,27.50
2019-03-01T18:32:59.342Z,22.13
2019-03-01T18:35:28.674Z,22.00
2019-03-01T18:37:58.077Z,21.93
2019-03-01T18:40:27.434Z,25.10
2019-03-01T18:42:57.123Z,21.53
2019-03-01T18:45:27.864Z,23.60
2019-03-01T18:47:57.210Z,22.63
2019-03-01T18:50:31.324Z,21.03
2019-03-01T18:53:06.118Z,21.87
2019-03-01T18:55:35.713Z,22.53
2019-03-01T18:58:38.291Z,23.73
2019-03-01T19:01:07.705Z,23.07
2019-03-01T19:03:40.199Z,23.40
2019-03-01T19:06:08.228Z,22.93
2019-03-01T19:08:39.677Z,21.40
2019-03-01T19:11:08.710Z,22.17
2019-03-01T19:13:38.526Z,21.10
2019-03-01T19:16:08.428Z,22.33
2019-03-01T19:18:38.125Z,22.10
2019-03-01T19:21:07.517Z,24.80
2019-03-01T19:23:38.070Z,23.97
2019-03-01T19:26:07.449Z,24.90
2019-03-01T19:28:36.821Z,24.13
2019-03-01T19:31:06.187Z,22.60
2019-03-01T19:33:37.851Z,22.77
2019-03-01T19:36:06.659Z,24.27
2019-03-01T19:38:36.043Z,28.73
2019-03-01T19:41:07.274Z,30.30
2019-03-01T19:43:36.647Z,30.37
2019-03-01T19:46:06.081Z,33.00
2019-03-01T19:48:37.264Z,36.87
2019-03-01T19:51:06.491Z,33.67
2019-03-01T19:53:37.476Z,33.93
2019-03-01T19:56:07.058Z,36.03
2019-03-01T19:58:36.492Z,34.23
2019-03-01T20:01:05.854Z,32.63
2019-03-01T20:03:35.227Z,31.60
2019-03-01T20:06:07.776Z,35.03
2019-03-01T20:08:35.728Z,37.73
2019-03-01T20:11:05.198Z,35.40
2019-03-01T20:13:34.650Z,35.80
2019-03-01T20:16:04.448Z,40.43
2019-03-01T20:18:37.030Z,42.20
2019-03-01T20:21:09.419Z,46.00
2019-03-01T20:23:37.529Z,43.27
2019-03-01T20:26:06.899Z,61.17
2019-03-01T20:28:36.970Z,57.57
2019-03-01T20:31:06.692Z,49.07
2019-03-01T20:33:36.422Z,49.40
2019-03-01T20:36:08.970Z,42.33
2019-03-01T20:38:40.083Z,51.80
2019-03-01T20:41:10.058Z,70.43
2019-03-01T20:43:41.843Z,73.03
2019-03-01T20:46:10.566Z,67.43
2019-03-01T20:48:39.939Z,67.43
2019-03-01T20:51:09.570Z,65.27
2019-03-01T20:53:38.920Z,71.73
2019-03-01T20:56:09.939Z,90.20
2019-03-01T20:58:40.627Z,78.27
2019-03-01T21:01:10.013Z,71.93
2019-03-01T21:03:39.477Z,72.67
2019-03-01T21:06:08.822Z,79.83
2019-03-01T21:08:38.147Z,82.90
2019-03-01T21:11:07.565Z,83.47
2019-03-01T21:13:36.960Z,81.43
2019-03-01T21:16:06.373Z,58.17
2019-03-01T21:18:35.754Z,58.07
2019-03-01T21:21:05.136Z,64.30
2019-03-01T21:23:34.538Z,72.40
2019-03-01T21:26:03.992Z,83.43
2019-03-01T21:28:33.729Z,70.13
2019-03-01T21:31:04.511Z,80.37
2019-03-01T21:33:33.883Z,79.77
2019-03-01T21:36:03.236Z,82.17
2019-03-01T21:38:32.587Z,81.57
2019-03-01T21:41:01.974Z,74.47
2019-03-01T21:43:33.581Z,47.97
2019-03-01T21:46:02.534Z,48.67
2019-03-01T21:48:32.006Z,49.63
2019-03-01T21:51:01.588Z,41.80
2019-03-01T21:53:36.420Z,40.83
2019-03-01T21:56:08.338Z,35.23
2019-03-01T21:58:38.509Z,29.10
2019-03-01T22:01:07.413Z,30.73
2019-03-01T22:03:36.894Z,31.57
2019-03-01T22:06:06.480Z,30.83
2019-03-01T22:08:35.847Z,30.87
2019-03-01T22:11:05.369Z,35.50
2019-03-01T22:13:35.768Z,34.40
2019-03-01T22:16:05.892Z,31.70
2019-03-01T22:18:36.329Z,38.87
2019-03-01T22:21:05.830Z,37.97
2019-03-01T22:23:35.232Z,35.93
2019-03-01T22:26:04.581Z,40.87
2019-03-01T22:28:36.146Z,38.47
2019-03-01T22:31:05.050Z,41.40
2019-03-01T22:33:34.413Z,45.43
2019-03-01T22:36:03.777Z,55.47
2019-03-01T22:38:33.132Z,52.27
2019-03-01T22:41:04.002Z,57.23
2019-03-01T22:43:33.556Z,61.30
2019-03-01T22:46:02.878Z,65.93
2019-03-01T22:48:32.254Z,66.17
2019-03-01T22:51:01.710Z,79.47
2019-03-01T22:53:31.116Z,73.30
2019-03-01T22:56:00.520Z,74.40
2019-03-01T22:58:32.777Z,77.67
2019-03-01T23:01:32.691Z,76.23
2019-03-01T23:04:04.639Z,75.13
2019-03-01T23:06:34.044Z,67.97
2019-03-01T23:09:10.366Z,68.93
2019-03-01T23:11:36.061Z,69.87
2019-03-01T23:14:05.872Z,68.57
2019-03-01T23:16:35.214Z,79.00
2019-03-01T23:19:04.569Z,85.97
2019-03-01T23:21:35.897Z,77.57
2019-03-01T23:24:05.094Z,64.90
2019-03-01T23:26:34.521Z,60.03
2019-03-01T23:29:03.885Z,56.87
2019-03-01T23:31:35.608Z,59.60
2019-03-01T23:34:06.998Z,57.27
2019-03-01T23:36:35.609Z,56.37
2019-03-01T23:39:06.077Z,52.93
2019-03-01T23:41:35.465Z,49.93
2019-03-01T23:44:06.431Z,52.27
2019-03-01T23:46:36.088Z,78.47
2019-03-01T23:49:06.489Z,72.30
2019-03-01T23:51:36.043Z,54.63
2019-03-01T23:54:05.735Z,60.57
2019-03-01T23:56:36.538Z,93.17
2019-03-01T23:59:05.976Z,114.63
